sensor_id;sensor_type;location;lat;lon;timestamp;pressure;altitude;pressure_sealevel;temperature;humidity
38612;BME280;24368;52.156;20.788;2024-03-02T00:01:31;100324.96;;;7.26;97.12
38612;BME280;24368;52.156;20.788;2024-03-02T00:06:33;100323.87;;;7.23;97.55
38612;BME280;24368;52.156;20.788;2024-03-02T00:11:35;100326.10;;;7.20;97.73
38612;BME280;24368;52.156;20.788;2024-03-02T00:16:38;100317.63;;;7.22;97.68
38612;BME280;24368;52.156;20.788;2024-03-02T00:21:40;100318.83;;;7.20;97.89
38612;BME280;24368;52.156;20.788;2024-03-02T00:26:44;100321.11;;;7.23;98.01
38612;BME280;24368;52.156;20.788;2024-03-02T00:31:46;100321.92;;;7.21;98.16
38612;BME280;24368;52.156;20.788;2024-03-02T00:36:50;100321.79;;;7.16;98.39
38612;BME280;24368;52.156;20.788;2024-03-02T00:41:52;100324.86;;;7.11;98.45
38612;BME280;24368;52.156;20.788;2024-03-02T00:46:54;100323.02;;;7.08;98.78
38612;BME280;24368;52.156;20.788;2024-03-02T00:51:56;100323.86;;;7.07;98.87
38612;BME280;24368;52.156;20.788;2024-03-02T00:56:58;100323.59;;;7.11;98.93
38612;BME280;24368;52.156;20.788;2024-03-02T01:02:01;100321.91;;;7.05;99.00
38612;BME280;24368;52.156;20.788;2024-03-02T01:07:21;100311.88;;;7.09;99.01
38612;BME280;24368;52.156;20.788;2024-03-02T01:12:22;100311.79;;;7.05;98.93
38612;BME280;24368;52.156;20.788;2024-03-02T01:17:42;100316.61;;;6.99;98.92
38612;BME280;24368;52.156;20.788;2024-03-02T01:22:44;100313.27;;;6.95;99.45
38612;BME280;24368;52.156;20.788;2024-03-02T01:27:46;100310.75;;;6.89;99.52
38612;BME280;24368;52.156;20.788;2024-03-02T01:32:47;100308.58;;;6.83;99.78
38612;BME280;24368;52.156;20.788;2024-03-02T01:37:49;100302.35;;;6.80;100.00
38612;BME280;24368;52.156;20.788;2024-03-02T01:42:52;100292.00;;;6.82;100.00
38612;BME280;24368;52.156;20.788;2024-03-02T01:47:55;100286.45;;;6.79;99.99
38612;BME280;24368;52.156;20.788;2024-03-02T01:52:58;100286.89;;;6.79;100.00
38612;BME280;24368;52.156;20.788;2024-03-02T01:58:01;100285.81;;;6.77;100.00
38612;BME280;24368;52.156;20.788;2024-03-02T02:03:06;100286.30;;;6.76;100.00
38612;BME280;24368;52.156;20.788;2024-03-02T02:08:26;100286.05;;;6.73;100.00
38612;BME280;24368;52.156;20.788;2024-03-02T02:13:28;100283.27;;;6.69;100.00
38612;BME280;24368;52.156;20.788;2024-03-02T02:18:29;100287.39;;;6.69;100.00
38612;BME280;24368;52.156;20.788;2024-03-02T02:23:31;100285.57;;;6.70;100.00
38612;BME280;24368;52.156;20.788;2024-03-02T02:28:33;100285.92;;;6.69;100.00
38612;BME280;24368;52.156;20.788;2024-03-02T02:33:39;100279.09;;;6.67;100.00
38612;BME280;24368;52.156;20.788;2024-03-02T02:38:44;100269.13;;;6.74;100.00
38612;BME280;24368;52.156;20.788;2024-03-02T02:43:48;100267.00;;;6.70;100.00
38612;BME280;24368;52.156;20.788;2024-03-02T02:48:50;100263.73;;;6.68;100.00
38612;BME280;24368;52.156;20.788;2024-03-02T02:53:55;100261.91;;;6.69;100.00
38612;BME280;24368;52.156;20.788;2024-03-02T02:58:59;100257.80;;;6.65;100.00
38612;BME280;24368;52.156;20.788;2024-03-02T03:04:01;100256.27;;;6.64;100.00
38612;BME280;24368;52.156;20.788;2024-03-02T03:09:21;100254.15;;;6.65;100.00
38612;BME280;24368;52.156;20.788;2024-03-02T03:14:23;100249.48;;;6.60;100.00
38612;BME280;24368;52.156;20.788;2024-03-02T03:19:25;100252.80;;;6.58;100.00
38612;BME280;24368;52.156;20.788;2024-03-02T03:24:26;100247.07;;;6.58;100.00
38612;BME280;24368;52.156;20.788;2024-03-02T03:29:28;100247.70;;;6.60;100.00
38612;BME280;24368;52.156;20.788;2024-03-02T03:34:34;100247.11;;;6.51;100.00
38612;BME280;24368;52.156;20.788;2024-03-02T03:39:36;100253.65;;;6.43;100.00
38612;BME280;24368;52.156;20.788;2024-03-02T03:44:38;100254.38;;;6.42;100.00
38612;BME280;24368;52.156;20.788;2024-03-02T03:49:41;100249.15;;;6.44;100.00
38612;BME280;24368;52.156;20.788;2024-03-02T03:54:43;100245.20;;;6.42;100.00
38612;BME280;24368;52.156;20.788;2024-03-02T03:59:46;100240.77;;;6.45;100.00
38612;BME280;24368;52.156;20.788;2024-03-02T04:04:48;100244.59;;;6.43;100.00
38612;BME280;24368;52.156;20.788;2024-03-02T04:09:50;100252.83;;;6.34;100.00
38612;BME280;24368;52.156;20.788;2024-03-02T04:15:09;100251.51;;;6.26;100.00
38612;BME280;24368;52.156;20.788;2024-03-02T04:20:12;100246.20;;;6.24;100.00
38612;BME280;24368;52.156;20.788;2024-03-02T04:25:14;100243.50;;;6.22;100.00
38612;BME280;24368;52.156;20.788;2024-03-02T04:30:16;100246.99;;;6.16;100.00
38612;BME280;24368;52.156;20.788;2024-03-02T04:35:17;100248.25;;;6.15;100.00
38612;BME280;24368;52.156;20.788;2024-03-02T04:40:19;100244.08;;;6.16;100.00
38612;BME280;24368;52.156;20.788;2024-03-02T04:45:21;100244.80;;;6.11;100.00
38612;BME280;24368;52.156;20.788;2024-03-02T04:50:23;100250.10;;;6.04;100.00
38612;BME280;24368;52.156;20.788;2024-03-02T04:55:25;100247.48;;;6.07;100.00
38612;BME280;24368;52.156;20.788;2024-03-02T05:00:29;100250.74;;;6.03;100.00
38612;BME280;24368;52.156;20.788;2024-03-02T05:05:31;100253.67;;;5.95;100.00
38612;BME280;24368;52.156;20.788;2024-03-02T05:10:33;100258.11;;;5.94;100.00
38612;BME280;24368;52.156;20.788;2024-03-02T05:15:35;100260.39;;;5.93;100.00
38612;BME280;24368;52.156;20.788;2024-03-02T05:20:39;100266.17;;;5.90;100.00
38612;BME280;24368;52.156;20.788;2024-03-02T05:25:41;100271.38;;;5.85;100.00
38612;BME280;24368;52.156;20.788;2024-03-02T05:30:42;100279.23;;;5.83;100.00
38612;BME280;24368;52.156;20.788;2024-03-02T05:35:44;100280.69;;;5.84;100.00
38612;BME280;24368;52.156;20.788;2024-03-02T05:40:46;100282.13;;;5.87;100.00
38612;BME280;24368;52.156;20.788;2024-03-02T05:45:48;100285.38;;;5.83;100.00
38612;BME280;24368;52.156;20.788;2024-03-02T05:50:51;100289.25;;;5.82;100.00
38612;BME280;24368;52.156;20.788;2024-03-02T05:55:53;100292.02;;;5.82;100.00
38612;BME280;24368;52.156;20.788;2024-03-02T06:00:57;100295.59;;;5.87;100.00
38612;BME280;24368;52.156;20.788;2024-03-02T06:05:59;100295.60;;;5.90;100.00
38612;BME280;24368;52.156;20.788;2024-03-02T06:11:01;100306.46;;;5.88;100.00
38612;BME280;24368;52.156;20.788;2024-03-02T06:16:03;100309.98;;;5.82;100.00
38612;BME280;24368;52.156;20.788;2024-03-02T06:21:05;100322.10;;;5.82;100.00
38612;BME280;24368;52.156;20.788;2024-03-02T06:26:07;100320.21;;;5.89;100.00
38612;BME280;24368;52.156;20.788;2024-03-02T06:31:11;100319.95;;;5.93;100.00
38612;BME280;24368;52.156;20.788;2024-03-02T06:36:13;100324.88;;;5.99;100.00
38612;BME280;24368;52.156;20.788;2024-03-02T06:41:17;100330.14;;;5.98;100.00
38612;BME280;24368;52.156;20.788;2024-03-02T06:46:18;100326.83;;;6.01;100.00
38612;BME280;24368;52.156;20.788;2024-03-02T06:51:20;100326.32;;;6.08;100.00
38612;BME280;24368;52.156;20.788;2024-03-02T06:56:22;100330.77;;;6.12;100.00
38612;BME280;24368;52.156;20.788;2024-03-02T07:01:41;100331.08;;;6.17;100.00
38612;BME280;24368;52.156;20.788;2024-03-02T07:06:45;100329.15;;;6.22;100.00
38612;BME280;24368;52.156;20.788;2024-03-02T07:11:47;100329.08;;;6.24;100.00
38612;BME280;24368;52.156;20.788;2024-03-02T07:16:48;100335.64;;;6.27;100.00
38612;BME280;24368;52.156;20.788;2024-03-02T07:21:50;100334.77;;;6.32;100.00
38612;BME280;24368;52.156;20.788;2024-03-02T07:26:53;100342.16;;;6.34;100.00
38612;BME280;24368;52.156;20.788;2024-03-02T07:31:55;100340.79;;;6.40;100.00
38612;BME280;24368;52.156;20.788;2024-03-02T07:36:57;100344.68;;;6.41;100.00
38612;BME280;24368;52.156;20.788;2024-03-02T07:41:59;100349.63;;;6.42;100.00
38612;BME280;24368;52.156;20.788;2024-03-02T07:47:02;100353.14;;;6.45;100.00
38612;BME280;24368;52.156;20.788;2024-03-02T07:52:21;100361.13;;;6.42;100.00
38612;BME280;24368;52.156;20.788;2024-03-02T07:57:26;100367.96;;;6.42;100.00
38612;BME280;24368;52.156;20.788;2024-03-02T08:02:28;100370.27;;;6.46;100.00
38612;BME280;24368;52.156;20.788;2024-03-02T08:07:30;100371.45;;;6.50;100.00
38612;BME280;24368;52.156;20.788;2024-03-02T08:12:32;100367.54;;;6.53;100.00
38612;BME280;24368;52.156;20.788;2024-03-02T08:17:34;100364.45;;;6.55;100.00
38612;BME280;24368;52.156;20.788;2024-03-02T08:22:35;100365.91;;;6.60;100.00
38612;BME280;24368;52.156;20.788;2024-03-02T08:27:39;100363.38;;;6.63;100.00
38612;BME280;24368;52.156;20.788;2024-03-02T08:32:42;100370.13;;;6.68;100.00
38612;BME280;24368;52.156;20.788;2024-03-02T08:37:44;100377.08;;;6.69;100.00
38612;BME280;24368;52.156;20.788;2024-03-02T08:42:46;100385.19;;;6.72;100.00
38612;BME280;24368;52.156;20.788;2024-03-02T08:47:49;100380.79;;;6.73;100.00
38612;BME280;24368;52.156;20.788;2024-03-02T08:52:51;100382.64;;;6.78;100.00
38612;BME280;24368;52.156;20.788;2024-03-02T08:57:52;100381.88;;;6.83;100.00
38612;BME280;24368;52.156;20.788;2024-03-02T09:02:54;100381.47;;;6.86;100.00
38612;BME280;24368;52.156;20.788;2024-03-02T09:07:56;100379.84;;;6.91;100.00
38612;BME280;24368;52.156;20.788;2024-03-02T09:12:59;100377.96;;;6.98;100.00
38612;BME280;24368;52.156;20.788;2024-03-02T09:18:01;100380.65;;;7.06;100.00
38612;BME280;24368;52.156;20.788;2024-03-02T09:23:03;100375.06;;;7.12;100.00
38612;BME280;24368;52.156;20.788;2024-03-02T09:28:05;100380.64;;;7.19;100.00
38612;BME280;24368;52.156;20.788;2024-03-02T09:33:08;100376.31;;;7.21;100.00
38612;BME280;24368;52.156;20.788;2024-03-02T09:38:10;100375.73;;;7.19;100.00
38612;BME280;24368;52.156;20.788;2024-03-02T09:43:12;100381.92;;;7.24;100.00
38612;BME280;24368;52.156;20.788;2024-03-02T09:48:15;100377.27;;;7.30;100.00
38612;BME280;24368;52.156;20.788;2024-03-02T09:53:20;100379.46;;;7.32;100.00
38612;BME280;24368;52.156;20.788;2024-03-02T09:58:23;100378.13;;;7.36;100.00
38612;BME280;24368;52.156;20.788;2024-03-02T10:03:26;100384.95;;;7.38;100.00
38612;BME280;24368;52.156;20.788;2024-03-02T10:08:42;100382.35;;;7.45;100.00
38612;BME280;24368;52.156;20.788;2024-03-02T10:13:45;100380.38;;;7.54;100.00
38612;BME280;24368;52.156;20.788;2024-03-02T10:18:47;100369.15;;;7.62;100.00
38612;BME280;24368;52.156;20.788;2024-03-02T10:23:49;100367.67;;;7.72;100.00
38612;BME280;24368;52.156;20.788;2024-03-02T10:28:51;100363.56;;;7.86;100.00
38612;BME280;24368;52.156;20.788;2024-03-02T10:34:01;100362.11;;;7.95;99.79
38612;BME280;24368;52.156;20.788;2024-03-02T10:39:04;100364.73;;;7.99;99.38
38612;BME280;24368;52.156;20.788;2024-03-02T10:44:43;100357.32;;;8.07;98.65
38612;BME280;24368;52.156;20.788;2024-03-02T10:49:46;100361.23;;;8.07;98.25
38612;BME280;24368;52.156;20.788;2024-03-02T10:54:50;100355.06;;;8.13;98.17
38612;BME280;24368;52.156;20.788;2024-03-02T10:59:57;100357.08;;;8.17;97.87
38612;BME280;24368;52.156;20.788;2024-03-02T11:05:06;100353.51;;;8.27;98.20
38612;BME280;24368;52.156;20.788;2024-03-02T11:10:09;100342.27;;;8.31;97.33
38612;BME280;24368;52.156;20.788;2024-03-02T11:15:17;100340.16;;;8.35;97.45
38612;BME280;24368;52.156;20.788;2024-03-02T11:20:20;100336.02;;;8.45;97.29
38612;BME280;24368;52.156;20.788;2024-03-02T11:25:27;100330.77;;;8.52;97.23
38612;BME280;24368;52.156;20.788;2024-03-02T11:35:46;100327.32;;;8.81;96.77
38612;BME280;24368;52.156;20.788;2024-03-02T11:40:49;100326.67;;;8.85;95.78
38612;BME280;24368;52.156;20.788;2024-03-02T11:46:09;100324.56;;;8.92;95.42
38612;BME280;24368;52.156;20.788;2024-03-02T11:51:12;100327.79;;;9.01;95.24
38612;BME280;24368;52.156;20.788;2024-03-02T11:56:13;100323.02;;;9.14;94.65
38612;BME280;24368;52.156;20.788;2024-03-02T12:01:16;100323.65;;;9.18;94.12
38612;BME280;24368;52.156;20.788;2024-03-02T12:06:18;100315.67;;;9.52;94.49
38612;BME280;24368;52.156;20.788;2024-03-02T12:11:20;100316.02;;;9.66;92.90
38612;BME280;24368;52.156;20.788;2024-03-02T12:16:26;100314.83;;;9.64;93.05
38612;BME280;24368;52.156;20.788;2024-03-02T12:21:45;100318.91;;;9.71;92.98
38612;BME280;24368;52.156;20.788;2024-03-02T12:26:49;100312.73;;;9.69;93.32
38612;BME280;24368;52.156;20.788;2024-03-02T12:31:52;100311.23;;;9.72;93.43
38612;BME280;24368;52.156;20.788;2024-03-02T12:36:56;100312.18;;;9.66;92.82
38612;BME280;24368;52.156;20.788;2024-03-02T12:41:58;100309.88;;;9.67;92.95
38612;BME280;24368;52.156;20.788;2024-03-02T12:47:00;100316.59;;;9.69;92.87
38612;BME280;24368;52.156;20.788;2024-03-02T12:52:03;100315.20;;;9.82;92.97
38612;BME280;24368;52.156;20.788;2024-03-02T12:57:05;100311.83;;;9.95;92.74
38612;BME280;24368;52.156;20.788;2024-03-02T13:02:07;100312.38;;;10.02;92.44
38612;BME280;24368;52.156;20.788;2024-03-02T13:07:18;100312.14;;;10.13;91.78
38612;BME280;24368;52.156;20.788;2024-03-02T13:12:21;100311.06;;;10.20;90.73
38612;BME280;24368;52.156;20.788;2024-03-02T13:17:24;100312.98;;;10.23;90.67
38612;BME280;24368;52.156;20.788;2024-03-02T13:22:26;100310.45;;;10.22;90.89
38612;BME280;24368;52.156;20.788;2024-03-02T13:27:28;100307.55;;;10.32;90.44
38612;BME280;24368;52.156;20.788;2024-03-02T13:32:30;100303.91;;;10.29;90.44
38612;BME280;24368;52.156;20.788;2024-03-02T13:37:33;100303.77;;;10.34;90.37
38612;BME280;24368;52.156;20.788;2024-03-02T13:42:35;100307.33;;;10.28;90.65
38612;BME280;24368;52.156;20.788;2024-03-02T13:47:37;100306.80;;;10.23;90.77
38612;BME280;24368;52.156;20.788;2024-03-02T13:52:39;100303.30;;;10.20;91.00
38612;BME280;24368;52.156;20.788;2024-03-02T13:57:59;100303.86;;;10.09;90.82
38612;BME280;24368;52.156;20.788;2024-03-02T14:03:01;100307.71;;;10.02;91.00
38612;BME280;24368;52.156;20.788;2024-03-02T14:08:03;100306.95;;;9.95;91.19
38612;BME280;24368;52.156;20.788;2024-03-02T14:13:06;100307.11;;;9.89;91.69
38612;BME280;24368;52.156;20.788;2024-03-02T14:18:08;100317.54;;;9.84;91.86
38612;BME280;24368;52.156;20.788;2024-03-02T14:23:12;100314.82;;;9.78;92.10
38612;BME280;24368;52.156;20.788;2024-03-02T14:28:14;100313.95;;;9.75;92.30
38612;BME280;24368;52.156;20.788;2024-03-02T14:33:18;100318.98;;;9.74;92.32
38612;BME280;24368;52.156;20.788;2024-03-02T14:38:20;100322.03;;;9.68;92.43
38612;BME280;24368;52.156;20.788;2024-03-02T14:43:22;100317.45;;;9.65;92.22
38612;BME280;24368;52.156;20.788;2024-03-02T14:48:41;100314.20;;;9.60;92.28
38612;BME280;24368;52.156;20.788;2024-03-02T14:53:42;100312.34;;;9.56;92.47
38612;BME280;24368;52.156;20.788;2024-03-02T14:58:45;100309.09;;;9.50;92.67
38612;BME280;24368;52.156;20.788;2024-03-02T15:03:47;100306.90;;;9.47;92.75
38612;BME280;24368;52.156;20.788;2024-03-02T15:08:50;100305.08;;;9.42;92.82
38612;BME280;24368;52.156;20.788;2024-03-02T15:14:10;100308.70;;;9.33;92.86
38612;BME280;24368;52.156;20.788;2024-03-02T15:19:12;100308.90;;;9.26;92.82
38612;BME280;24368;52.156;20.788;2024-03-02T15:24:14;100312.99;;;9.22;92.89
38612;BME280;24368;52.156;20.788;2024-03-02T15:29:16;100316.73;;;9.18;92.98
38612;BME280;24368;52.156;20.788;2024-03-02T15:34:18;100319.00;;;9.09;93.03
38612;BME280;24368;52.156;20.788;2024-03-02T15:39:37;100317.81;;;9.04;93.29
38612;BME280;24368;52.156;20.788;2024-03-02T15:44:39;100321.55;;;9.01;93.40
38612;BME280;24368;52.156;20.788;2024-03-02T15:49:42;100317.75;;;8.96;93.27
38612;BME280;24368;52.156;20.788;2024-03-02T15:55:02;100315.79;;;8.92;93.57
38612;BME280;24368;52.156;20.788;2024-03-02T16:00:07;100316.07;;;8.89;93.65
38612;BME280;24368;52.156;20.788;2024-03-02T16:05:10;100313.80;;;8.84;93.56
38612;BME280;24368;52.156;20.788;2024-03-02T16:10:12;100318.31;;;8.81;93.75
38612;BME280;24368;52.156;20.788;2024-03-02T16:15:14;100323.98;;;8.77;94.11
38612;BME280;24368;52.156;20.788;2024-03-02T16:20:17;100320.84;;;8.75;94.31
38612;BME280;24368;52.156;20.788;2024-03-02T16:25:36;100325.91;;;8.69;94.55
38612;BME280;24368;52.156;20.788;2024-03-02T16:30:38;100328.06;;;8.63;94.85
38612;BME280;24368;52.156;20.788;2024-03-02T16:35:40;100330.72;;;8.60;95.05
38612;BME280;24368;52.156;20.788;2024-03-02T16:40:42;100333.86;;;8.55;95.15
38612;BME280;24368;52.156;20.788;2024-03-02T16:45:44;100340.09;;;8.52;95.45
38612;BME280;24368;52.156;20.788;2024-03-02T16:50:46;100345.26;;;8.49;95.47
38612;BME280;24368;52.156;20.788;2024-03-02T16:55:48;100349.27;;;8.47;95.58
38612;BME280;24368;52.156;20.788;2024-03-02T17:00:49;100347.24;;;8.45;95.78
38612;BME280;24368;52.156;20.788;2024-03-02T17:05:51;100351.41;;;8.39;95.80
38612;BME280;24368;52.156;20.788;2024-03-02T17:10:53;100349.09;;;8.35;96.13
38612;BME280;24368;52.156;20.788;2024-03-02T17:15:56;100346.91;;;8.34;96.16
38612;BME280;24368;52.156;20.788;2024-03-02T17:20:59;100347.08;;;8.30;96.19
38612;BME280;24368;52.156;20.788;2024-03-02T17:26:01;100343.02;;;8.32;96.28
38612;BME280;24368;52.156;20.788;2024-03-02T17:31:03;100341.39;;;8.33;96.18
38612;BME280;24368;52.156;20.788;2024-03-02T17:36:06;100341.90;;;8.31;96.20
38612;BME280;24368;52.156;20.788;2024-03-02T17:41:08;100345.85;;;8.31;96.28
38612;BME280;24368;52.156;20.788;2024-03-02T17:46:12;100340.98;;;8.29;96.47
38612;BME280;24368;52.156;20.788;2024-03-02T17:51:15;100346.65;;;8.28;96.49
38612;BME280;24368;52.156;20.788;2024-03-02T17:56:18;100347.66;;;8.26;96.66
38612;BME280;24368;52.156;20.788;2024-03-02T18:01:19;100350.05;;;8.22;96.80
38612;BME280;24368;52.156;20.788;2024-03-02T18:06:21;100354.62;;;8.20;96.95
38612;BME280;24368;52.156;20.788;2024-03-02T18:11:23;100350.08;;;8.18;96.90
38612;BME280;24368;52.156;20.788;2024-03-02T18:16:43;100355.77;;;8.19;96.98
38612;BME280;24368;52.156;20.788;2024-03-02T18:21:45;100358.14;;;8.17;97.13
38612;BME280;24368;52.156;20.788;2024-03-02T18:26:47;100358.25;;;8.16;97.26
38612;BME280;24368;52.156;20.788;2024-03-02T18:31:48;100354.58;;;8.13;97.34
38612;BME280;24368;52.156;20.788;2024-03-02T18:36:50;100354.95;;;8.14;97.46
38612;BME280;24368;52.156;20.788;2024-03-02T18:41:52;100355.80;;;8.16;97.42
38612;BME280;24368;52.156;20.788;2024-03-02T18:46:54;100354.79;;;8.14;97.44
38612;BME280;24368;52.156;20.788;2024-03-02T18:51:56;100351.88;;;8.13;97.66
38612;BME280;24368;52.156;20.788;2024-03-02T18:56:58;100353.55;;;8.15;97.63
38612;BME280;24368;52.156;20.788;2024-03-02T19:02:00;100354.10;;;8.14;97.74
38612;BME280;24368;52.156;20.788;2024-03-02T19:07:01;100354.65;;;8.13;97.89
38612;BME280;24368;52.156;20.788;2024-03-02T19:12:21;100350.38;;;8.12;97.91
38612;BME280;24368;52.156;20.788;2024-03-02T19:17:25;100346.52;;;8.11;97.97
38612;BME280;24368;52.156;20.788;2024-03-02T19:22:27;100345.30;;;8.13;98.03
38612;BME280;24368;52.156;20.788;2024-03-02T19:27:47;100346.02;;;8.11;97.84
38612;BME280;24368;52.156;20.788;2024-03-02T19:32:49;100343.30;;;8.04;98.01
38612;BME280;24368;52.156;20.788;2024-03-02T19:37:51;100342.16;;;8.00;98.19
38612;BME280;24368;52.156;20.788;2024-03-02T19:42:53;100346.63;;;7.99;98.18
38612;BME280;24368;52.156;20.788;2024-03-02T19:48:13;100342.55;;;8.02;98.30
38612;BME280;24368;52.156;20.788;2024-03-02T19:53:17;100341.51;;;8.02;98.11
38612;BME280;24368;52.156;20.788;2024-03-02T19:58:20;100338.88;;;8.00;98.17
38612;BME280;24368;52.156;20.788;2024-03-02T20:03:22;100338.96;;;8.02;98.08
38612;BME280;24368;52.156;20.788;2024-03-02T20:08:24;100338.45;;;7.99;98.03
38612;BME280;24368;52.156;20.788;2024-03-02T20:13:28;100337.90;;;8.02;98.00
38612;BME280;24368;52.156;20.788;2024-03-02T20:18:30;100340.05;;;8.03;97.84
38612;BME280;24368;52.156;20.788;2024-03-02T20:23:31;100342.50;;;8.02;97.78
38612;BME280;24368;52.156;20.788;2024-03-02T20:28:35;100351.23;;;8.01;97.68
38612;BME280;24368;52.156;20.788;2024-03-02T20:33:37;100340.27;;;8.00;97.72
38612;BME280;24368;52.156;20.788;2024-03-02T20:38:39;100337.39;;;8.02;97.51
38612;BME280;24368;52.156;20.788;2024-03-02T20:43:40;100338.61;;;7.98;97.53
38612;BME280;24368;52.156;20.788;2024-03-02T20:48:42;100341.34;;;7.97;97.63
38612;BME280;24368;52.156;20.788;2024-03-02T20:53:45;100341.50;;;7.96;97.44
38612;BME280;24368;52.156;20.788;2024-03-02T20:58:47;100336.97;;;7.98;97.39
38612;BME280;24368;52.156;20.788;2024-03-02T21:03:49;100343.08;;;7.97;97.33
38612;BME280;24368;52.156;20.788;2024-03-02T21:08:51;100342.03;;;7.95;97.24
38612;BME280;24368;52.156;20.788;2024-03-02T21:13:53;100334.85;;;7.95;97.08
38612;BME280;24368;52.156;20.788;2024-03-02T21:19:14;100333.93;;;7.94;97.00
38612;BME280;24368;52.156;20.788;2024-03-02T21:24:16;100331.49;;;7.92;97.02
38612;BME280;24368;52.156;20.788;2024-03-02T21:29:18;100335.02;;;7.91;96.97
38612;BME280;24368;52.156;20.788;2024-03-02T21:34:21;100333.11;;;7.89;97.05
38612;BME280;24368;52.156;20.788;2024-03-02T21:39:24;100333.98;;;7.88;96.94
38612;BME280;24368;52.156;20.788;2024-03-02T21:44:25;100328.20;;;7.87;96.79
38612;BME280;24368;52.156;20.788;2024-03-02T21:49:46;100321.84;;;7.87;96.68
38612;BME280;24368;52.156;20.788;2024-03-02T21:54:48;100327.50;;;7.89;96.68
38612;BME280;24368;52.156;20.788;2024-03-02T21:59:50;100325.09;;;7.85;96.45
38612;BME280;24368;52.156;20.788;2024-03-02T22:04:52;100324.98;;;7.87;96.28
38612;BME280;24368;52.156;20.788;2024-03-02T22:09:54;100319.36;;;7.88;96.22
38612;BME280;24368;52.156;20.788;2024-03-02T22:14:58;100317.24;;;7.87;95.99
38612;BME280;24368;52.156;20.788;2024-03-02T22:20:00;100316.55;;;7.87;96.06
38612;BME280;24368;52.156;20.788;2024-03-02T22:25:04;100316.20;;;7.88;96.02
38612;BME280;24368;52.156;20.788;2024-03-02T22:30:07;100315.26;;;7.90;95.80
38612;BME280;24368;52.156;20.788;2024-03-02T22:35:28;100314.42;;;7.88;95.73
38612;BME280;24368;52.156;20.788;2024-03-02T22:40:31;100315.03;;;7.86;95.44
38612;BME280;24368;52.156;20.788;2024-03-02T22:45:32;100312.04;;;7.86;95.53
38612;BME280;24368;52.156;20.788;2024-03-02T22:50:34;100310.46;;;7.84;95.55
38612;BME280;24368;52.156;20.788;2024-03-02T22:55:54;100306.00;;;7.82;95.59
38612;BME280;24368;52.156;20.788;2024-03-02T23:00:56;100305.48;;;7.83;95.71
38612;BME280;24368;52.156;20.788;2024-03-02T23:06:04;100311.88;;;7.77;95.63
38612;BME280;24368;52.156;20.788;2024-03-02T23:11:06;100311.80;;;7.82;95.67
38612;BME280;24368;52.156;20.788;2024-03-02T23:16:08;100306.98;;;7.82;95.44
38612;BME280;24368;52.156;20.788;2024-03-02T23:21:10;100302.62;;;7.79;95.58
38612;BME280;24368;52.156;20.788;2024-03-02T23:26:12;100305.61;;;7.78;95.59
38612;BME280;24368;52.156;20.788;2024-03-02T23:31:14;100304.95;;;7.78;95.53
38612;BME280;24368;52.156;20.788;2024-03-02T23:36:17;100305.17;;;7.76;95.54
38612;BME280;24368;52.156;20.788;2024-03-02T23:41:19;100303.73;;;7.76;95.56
38612;BME280;24368;52.156;20.788;2024-03-02T23:46:22;100310.54;;;7.78;95.45
38612;BME280;24368;52.156;20.788;2024-03-02T23:51:25;100308.52;;;7.77;95.29
38612;BME280;24368;52.156;20.788;2024-03-02T23:56:27;100301.44;;;7.76;95.10
